createdAt,value
2023-01-05T00:01:41.108Z,10.40
2023-01-05T00:06:39.726Z,10.40
2023-01-05T00:11:57.259Z,10.40
2023-01-05T00:17:27.655Z,10.50
2023-01-05T00:22:34.682Z,10.50
2023-01-05T00:27:34.786Z,10.50
2023-01-05T00:32:33.129Z,10.50
2023-01-05T00:37:33.650Z,10.40
2023-01-05T00:42:33.259Z,10.50
2023-01-05T00:47:31.554Z,10.50
2023-01-05T00:52:29.934Z,10.50
2023-01-05T00:57:28.373Z,10.50
2023-01-05T01:02:28.928Z,10.50
2023-01-05T01:07:29.177Z,10.50
2023-01-05T01:12:30.234Z,10.50
2023-01-05T01:17:34.198Z,10.50
2023-01-05T01:22:35.207Z,10.60
2023-01-05T01:27:38.240Z,10.70
2023-01-05T01:32:41.187Z,10.70
2023-01-05T01:37:44.228Z,10.80
2023-01-05T01:42:44.258Z,10.70
2023-01-05T01:47:48.433Z,10.70
2023-01-05T01:52:48.760Z,10.70
2023-01-05T01:57:48.386Z,10.70
2023-01-05T02:02:49.873Z,10.70
2023-01-05T02:07:52.492Z,10.70
2023-01-05T02:13:02.665Z,10.80
2023-01-05T02:18:18.537Z,10.70
2023-01-05T02:24:00.571Z,10.70
2023-01-05T02:29:27.911Z,10.60
2023-01-05T02:34:37.600Z,10.60
2023-01-05T02:39:44.438Z,10.60
2023-01-05T02:44:42.949Z,10.60
2023-01-05T02:49:42.706Z,10.60
2023-01-05T02:54:47.910Z,10.60
2023-01-05T02:59:51.104Z,10.60
2023-01-05T03:04:56.277Z,10.60
2023-01-05T03:09:55.121Z,10.60
2023-01-05T03:14:58.137Z,10.60
2023-01-05T03:19:59.263Z,10.60
2023-01-05T03:25:15.786Z,10.60
2023-01-05T03:30:33.744Z,10.60
2023-01-05T03:35:36.267Z,10.70
2023-01-05T03:40:38.212Z,10.60
2023-01-05T03:45:41.466Z,10.60
2023-01-05T03:50:44.948Z,10.60
2023-01-05T03:55:46.157Z,10.70
2023-01-05T04:00:45.446Z,10.70
2023-01-05T04:05:47.450Z,10.80
2023-01-05T04:10:47.038Z,10.80
2023-01-05T04:15:45.702Z,10.90
2023-01-05T04:20:44.433Z,10.90
2023-01-05T04:25:47.894Z,10.70
2023-01-05T04:30:53.156Z,10.70
2023-01-05T04:35:51.642Z,10.60
2023-01-05T04:40:53.027Z,10.60
2023-01-05T04:45:55.218Z,10.60
2023-01-05T04:50:56.771Z,10.60
2023-01-05T04:56:02.621Z,10.60
2023-01-05T05:01:05.967Z,10.50
2023-01-05T05:06:07.200Z,10.30
2023-01-05T05:11:07.921Z,10.20
2023-01-05T05:16:09.791Z,10.10
2023-01-05T05:21:11.469Z,10.00
2023-01-05T05:26:12.908Z,10.00
2023-01-05T05:31:11.140Z,9.90
2023-01-05T05:36:10.235Z,9.90
2023-01-05T05:41:08.270Z,9.90
2023-01-05T05:46:08.155Z,9.90
2023-01-05T05:51:06.714Z,10.00
2023-01-05T05:56:05.111Z,10.00
2023-01-05T06:01:03.366Z,10.00
2023-01-05T06:06:03.117Z,10.00
2023-01-05T06:11:01.802Z,10.00
2023-01-05T06:16:00.253Z,10.00
2023-01-05T06:21:01.701Z,10.00
2023-01-05T06:26:01.629Z,10.00
2023-01-05T06:30:59.830Z,10.10
2023-01-05T06:35:58.923Z,10.10
2023-01-05T06:40:58.231Z,10.10
2023-01-05T06:45:58.004Z,10.10
2023-01-05T06:50:56.310Z,10.00
2023-01-05T06:55:54.531Z,10.00
2023-01-05T07:00:55.082Z,9.90
2023-01-05T07:05:54.700Z,9.80
2023-01-05T07:10:52.909Z,9.80
2023-01-05T07:15:51.107Z,9.80
2023-01-05T07:20:49.457Z,9.80
2023-01-05T07:25:49.045Z,9.80
2023-01-05T07:30:52.739Z,9.80
2023-01-05T07:35:50.932Z,9.80
2023-01-05T07:40:50.345Z,10.00
2023-01-05T07:45:48.643Z,9.80
2023-01-05T07:50:46.997Z,9.90
2023-01-05T07:55:45.218Z,9.70
2023-01-05T08:00:44.836Z,9.70
2023-01-05T08:05:43.088Z,9.80
2023-01-05T08:10:42.187Z,9.70
2023-01-05T08:15:41.868Z,9.70
2023-01-05T08:20:44.527Z,9.70
2023-01-05T08:25:42.726Z,9.80
2023-01-05T08:30:41.020Z,9.90
2023-01-05T08:35:43.115Z,10.00
2023-01-05T08:40:42.701Z,10.00
2023-01-05T08:45:40.961Z,10.00
2023-01-05T08:50:39.156Z,10.20
2023-01-05T08:55:37.358Z,10.20
2023-01-05T09:00:37.047Z,10.20
2023-01-05T09:05:35.287Z,10.30
2023-01-05T09:10:33.517Z,10.20
2023-01-05T09:15:31.599Z,10.30
2023-01-05T09:20:36.195Z,10.20
2023-01-05T09:25:39.890Z,10.20
2023-01-05T09:30:44.396Z,10.40
2023-01-05T09:35:54.994Z,11.10
2023-01-05T09:40:56.470Z,12.10
2023-01-05T09:45:56.188Z,12.70
2023-01-05T09:50:55.815Z,13.30
2023-01-05T09:55:54.981Z,14.00
2023-01-05T10:01:07.805Z,12.80
2023-01-05T10:06:12.927Z,11.70
2023-01-05T10:11:33.138Z,13.10
2023-01-05T10:16:33.194Z,14.30
2023-01-05T10:21:43.393Z,12.40
2023-01-05T10:27:23.184Z,11.30
2023-01-05T10:32:12.399Z,10.90
2023-01-05T10:37:34.526Z,10.80
2023-01-05T10:42:47.647Z,10.50
2023-01-05T10:47:47.121Z,10.40
2023-01-05T10:52:47.736Z,10.40
2023-01-05T10:57:48.035Z,10.30
2023-01-05T11:02:51.274Z,10.30
2023-01-05T11:07:52.939Z,10.20
2023-01-05T11:13:03.527Z,10.10
2023-01-05T11:18:01.704Z,10.10
2023-01-05T11:23:01.542Z,10.10
2023-01-05T11:28:15.034Z,10.20
2023-01-05T11:33:25.435Z,10.30
2023-01-05T11:38:28.437Z,10.30
2023-01-05T11:43:29.755Z,10.20
2023-01-05T11:48:30.101Z,10.20
2023-01-05T11:53:38.237Z,10.40
2023-01-05T11:58:44.076Z,10.70
2023-01-05T12:04:02.600Z,10.60
2023-01-05T12:09:12.318Z,10.50
2023-01-05T12:14:27.912Z,10.70
2023-01-05T12:19:44.270Z,10.80
2023-01-05T12:25:02.224Z,10.70
2023-01-05T12:35:41.572Z,10.70
2023-01-05T12:41:02.755Z,10.60
2023-01-05T12:46:14.729Z,10.70
2023-01-05T12:51:19.718Z,10.60
2023-01-05T12:56:26.949Z,10.80
2023-01-05T13:01:31.180Z,11.00
2023-01-05T13:06:34.752Z,11.40
2023-01-05T13:11:38.053Z,11.20
2023-01-05T13:16:41.256Z,10.70
2023-01-05T13:21:43.043Z,10.60
2023-01-05T13:26:42.674Z,10.40
2023-01-05T13:32:04.733Z,10.20
2023-01-05T13:37:32.575Z,10.30
2023-01-05T13:43:15.684Z,10.20
2023-01-05T13:48:58.112Z,10.20
2023-01-05T13:54:13.442Z,10.10
2023-01-05T13:59:34.914Z,10.10
2023-01-05T14:04:45.779Z,10.20
2023-01-05T14:09:48.715Z,10.20
2023-01-05T14:15:01.883Z,10.10
2023-01-05T14:20:00.226Z,10.10
2023-01-05T14:24:59.636Z,10.10
2023-01-05T14:30:02.292Z,10.00
2023-01-05T14:35:06.116Z,10.00
2023-01-05T14:40:17.296Z,10.10
2023-01-05T14:45:23.525Z,10.10
2023-01-05T14:50:34.148Z,10.20
2023-01-05T14:55:39.989Z,10.20
2023-01-05T15:05:55.148Z,10.00
2023-01-05T15:11:16.850Z,9.90
2023-01-05T15:16:23.740Z,9.90
2023-01-05T15:21:41.165Z,9.70
2023-01-05T15:27:00.119Z,9.60
2023-01-05T15:32:01.936Z,9.60
2023-01-05T15:37:07.549Z,9.70
2023-01-05T15:42:09.905Z,9.70
2023-01-05T15:47:10.748Z,9.60
2023-01-05T15:52:20.472Z,9.40
2023-01-05T15:57:23.042Z,9.40
2023-01-05T16:02:24.569Z,9.30
2023-01-05T16:07:22.856Z,9.30
2023-01-05T16:12:25.904Z,9.30
2023-01-05T16:17:26.571Z,9.20
2023-01-05T16:22:30.401Z,9.20
2023-01-05T16:27:30.665Z,9.20
2023-01-05T16:32:32.355Z,9.20
2023-01-05T16:37:30.415Z,9.30
2023-01-05T16:42:43.026Z,9.30
2023-01-05T16:47:43.069Z,9.40
2023-01-05T16:52:46.560Z,9.30
2023-01-05T16:57:46.505Z,9.30
2023-01-05T17:02:47.483Z,9.40
2023-01-05T17:07:47.464Z,9.40
2023-01-05T17:12:53.139Z,9.30
2023-01-05T17:17:55.326Z,9.20
2023-01-05T17:22:56.476Z,9.20
2023-01-05T17:27:55.853Z,9.00
2023-01-05T17:32:54.294Z,8.90
2023-01-05T17:37:52.555Z,8.90
2023-01-05T17:42:51.186Z,9.00
2023-01-05T17:47:52.343Z,9.00
2023-01-05T17:52:50.620Z,9.00
2023-01-05T17:57:49.670Z,9.00
2023-01-05T18:02:48.140Z,8.90
2023-01-05T18:07:48.304Z,9.00
2023-01-05T18:12:46.792Z,9.00
2023-01-05T18:17:44.918Z,9.00
2023-01-05T18:22:43.607Z,8.90
2023-01-05T18:27:43.338Z,8.90
2023-01-05T18:32:41.875Z,8.80
2023-01-05T18:37:41.935Z,8.90
2023-01-05T18:42:40.619Z,8.90
2023-01-05T18:47:40.265Z,8.90
2023-01-05T18:52:38.830Z,9.00
2023-01-05T18:57:37.239Z,9.10
2023-01-05T19:02:35.477Z,9.30
2023-01-05T19:07:35.061Z,9.20
2023-01-05T19:12:33.292Z,9.20
2023-01-05T19:17:33.739Z,9.10
2023-01-05T19:22:31.972Z,9.00
2023-01-05T19:27:31.559Z,8.90
2023-01-05T19:32:31.927Z,8.90
2023-01-05T19:37:30.226Z,8.90
2023-01-05T19:42:28.541Z,8.90
2023-01-05T19:47:28.362Z,8.90
2023-01-05T19:52:29.861Z,8.80
2023-01-05T19:57:28.967Z,8.80
2023-01-05T20:02:28.589Z,8.60
2023-01-05T20:07:26.859Z,8.50
2023-01-05T20:12:25.107Z,8.50
2023-01-05T20:17:23.348Z,8.40
2023-01-05T20:22:22.959Z,8.40
2023-01-05T20:27:21.253Z,8.30
2023-01-05T20:32:21.836Z,8.30
2023-01-05T20:37:20.086Z,8.40
2023-01-05T20:42:19.851Z,8.40
2023-01-05T20:47:18.492Z,8.40
2023-01-05T20:52:18.640Z,8.40
2023-01-05T20:57:16.904Z,8.40
2023-01-05T21:02:23.625Z,8.40
2023-01-05T21:07:23.289Z,8.40
2023-01-05T21:12:22.095Z,8.20
2023-01-05T21:17:21.661Z,8.20
2023-01-05T21:22:19.852Z,8.10
2023-01-05T21:27:18.046Z,8.10
2023-01-05T21:32:16.264Z,8.00
2023-01-05T21:37:16.358Z,8.00
2023-01-05T21:42:31.808Z,7.90
2023-01-05T21:47:30.424Z,7.80
2023-01-05T21:52:47.265Z,7.90
2023-01-05T21:57:45.946Z,7.80
2023-01-05T22:02:44.175Z,7.80
2023-01-05T22:07:43.756Z,7.80
2023-01-05T22:12:41.965Z,7.80
2023-01-05T22:17:40.524Z,7.80
2023-01-05T22:22:38.724Z,7.90
2023-01-05T22:27:38.322Z,7.80
2023-01-05T22:32:36.794Z,7.80
2023-01-05T22:37:35.009Z,7.70
2023-01-05T22:42:33.352Z,7.70
2023-01-05T22:47:32.922Z,7.70
2023-01-05T22:52:31.143Z,7.70
2023-01-05T22:57:29.540Z,7.40
2023-01-05T23:02:27.951Z,7.30
2023-01-05T23:07:27.565Z,7.30
2023-01-05T23:12:25.775Z,7.40
2023-01-05T23:17:23.960Z,7.20
2023-01-05T23:22:22.244Z,7.10
2023-01-05T23:27:21.905Z,7.10
2023-01-05T23:32:20.148Z,7.10
2023-01-05T23:37:18.371Z,7.00
2023-01-05T23:42:30.472Z,7.00
2023-01-05T23:47:30.032Z,7.00
2023-01-05T23:52:28.264Z,7.00
2023-01-05T23:57:26.601Z,7.10
